Terminal Aerodrome Forecast
Issued by NWS North Platte, NE

Home | Current Version | Previous Version | Graphics & Text | Print | Product List | Glossary On
Versions: 1 2 3 4 5 6 7 8 9 10 11 12 13 14 15 16 17 18 19
000
FTUS43 KLBF 270500
TAFVTN
TAF
KVTN 270535Z 2706/2806 14005KT P6SM BKN050 OVC100
     FM270900 14008KT P6SM SCT012 OVC120
      TEMPO 2710/2713 BKN012 OVC120
     FM271900 18012KT P6SM SCT015 BKN250
     FM280000 VRB06KT P6SM BKN250=

USA.gov is the U.S. government's official web portal to all federal, state and local government web resources and services.